sensor_id;sensor_type;location;lat;lon;timestamp;pressure;altitude;pressure_sealevel;temperature;humidity
42125;BME280;27787;44.594;11.046;2023-01-27T00:02:21;100786.44;;;4.88;78.14
42125;BME280;27787;44.594;11.046;2023-01-27T00:05:06;100781.34;;;4.92;78.27
42125;BME280;27787;44.594;11.046;2023-01-27T00:07:51;100781.25;;;4.89;78.00
42125;BME280;27787;44.594;11.046;2023-01-27T00:10:35;100781.25;;;4.89;79.02
42125;BME280;27787;44.594;11.046;2023-01-27T00:13:20;100775.06;;;4.86;79.51
42125;BME280;27787;44.594;11.046;2023-01-27T00:16:10;100778.47;;;4.83;79.85
42125;BME280;27787;44.594;11.046;2023-01-27T00:18:54;100783.63;;;4.82;80.10
42125;BME280;27787;44.594;11.046;2023-01-27T00:21:38;100777.50;;;4.81;81.10
42125;BME280;27787;44.594;11.046;2023-01-27T00:24:40;100785.31;;;4.80;80.47
42125;BME280;27787;44.594;11.046;2023-01-27T00:27:25;100788.78;;;4.79;80.77
42125;BME280;27787;44.594;11.046;2023-01-27T00:30:10;100783.63;;;4.82;81.62
42125;BME280;27787;44.594;11.046;2023-01-27T00:32:55;100782.66;;;4.78;81.79
42125;BME280;27787;44.594;11.046;2023-01-27T00:36:03;100788.69;;;4.76;82.33
42125;BME280;27787;44.594;11.046;2023-01-27T00:38:48;100786.06;;;4.76;82.83
42125;BME280;27787;44.594;11.046;2023-01-27T00:41:32;100781.84;;;4.81;82.02
42125;BME280;27787;44.594;11.046;2023-01-27T00:44:16;100781.94;;;4.82;81.48
42125;BME280;27787;44.594;11.046;2023-01-27T00:47:00;100774.09;;;4.82;81.99
42125;BME280;27787;44.594;11.046;2023-01-27T00:49:44;100780.03;;;4.78;81.73
42125;BME280;27787;44.594;11.046;2023-01-27T00:52:28;100782.66;;;4.78;81.95
42125;BME280;27787;44.594;11.046;2023-01-27T00:55:12;100785.31;;;4.80;81.39
42125;BME280;27787;44.594;11.046;2023-01-27T00:57:58;100784.44;;;4.79;81.28
42125;BME280;27787;44.594;11.046;2023-01-27T01:00:43;100788.72;;;4.77;78.65
42125;BME280;27787;44.594;11.046;2023-01-27T01:03:28;100787.75;;;4.73;77.77
42125;BME280;27787;44.594;11.046;2023-01-27T01:06:17;100792.84;;;4.69;78.27
42125;BME280;27787;44.594;11.046;2023-01-27T01:09:02;100785.81;;;4.68;78.17
42125;BME280;27787;44.594;11.046;2023-01-27T01:11:46;100789.19;;;4.64;78.76
42125;BME280;27787;44.594;11.046;2023-01-27T01:14:30;100797.91;;;4.64;78.66
42125;BME280;27787;44.594;11.046;2023-01-27T01:17:14;100796.97;;;4.62;77.64
42125;BME280;27787;44.594;11.046;2023-01-27T01:19:59;100797.78;;;4.60;77.53
42125;BME280;27787;44.594;11.046;2023-01-27T01:22:43;100803.00;;;4.60;78.18
42125;BME280;27787;44.594;11.046;2023-01-27T01:25:27;100799.56;;;4.61;78.11
42125;BME280;27787;44.594;11.046;2023-01-27T01:28:13;100802.31;;;4.65;77.48
42125;BME280;27787;44.594;11.046;2023-01-27T01:31:09;100802.34;;;4.67;77.75
42125;BME280;27787;44.594;11.046;2023-01-27T01:33:54;100802.47;;;4.70;77.22
42125;BME280;27787;44.594;11.046;2023-01-27T01:36:38;100805.09;;;4.70;77.36
42125;BME280;27787;44.594;11.046;2023-01-27T01:39:22;100803.31;;;4.69;77.30
42125;BME280;27787;44.594;11.046;2023-01-27T01:42:07;100804.91;;;4.65;76.68
42125;BME280;27787;44.594;11.046;2023-01-27T01:48:31;100801.84;;;4.79;76.91
42125;BME280;27787;44.594;11.046;2023-01-27T01:51:42;100795.13;;;4.87;76.68
42125;BME280;27787;44.594;11.046;2023-01-27T01:54:32;100792.81;;;4.96;75.72
42125;BME280;27787;44.594;11.046;2023-01-27T01:57:27;100802.44;;;4.97;74.72
42125;BME280;27787;44.594;11.046;2023-01-27T02:00:15;100796.44;;;5.01;74.58
42125;BME280;27787;44.594;11.046;2023-01-27T02:03:00;100787.03;;;5.08;74.46
42125;BME280;27787;44.594;11.046;2023-01-27T02:05:45;100788.00;;;5.10;73.97
42125;BME280;27787;44.594;11.046;2023-01-27T02:08:42;100784.56;;;5.12;73.74
42125;BME280;27787;44.594;11.046;2023-01-27T02:11:27;100784.63;;;5.14;73.87
42125;BME280;27787;44.594;11.046;2023-01-27T02:14:12;100788.13;;;5.14;73.71
42125;BME280;27787;44.594;11.046;2023-01-27T02:16:59;100783.84;;;5.18;73.58
42125;BME280;27787;44.594;11.046;2023-01-27T02:28:17;100781.16;;;5.15;73.56
42125;BME280;27787;44.594;11.046;2023-01-27T02:31:02;100778.63;;;5.18;73.53
42125;BME280;27787;44.594;11.046;2023-01-27T02:33:46;100783.75;;;5.15;73.46
42125;BME280;27787;44.594;11.046;2023-01-27T02:36:34;100782.88;;;5.14;73.62
42125;BME280;27787;44.594;11.046;2023-01-27T02:39:24;100782.94;;;5.16;73.70
42125;BME280;27787;44.594;11.046;2023-01-27T02:42:13;100784.66;;;5.15;73.67
42125;BME280;27787;44.594;11.046;2023-01-27T02:44:58;100781.28;;;5.19;73.84
42125;BME280;27787;44.594;11.046;2023-01-27T02:47:42;100778.81;;;5.24;73.42
42125;BME280;27787;44.594;11.046;2023-01-27T02:50:27;100784.06;;;5.24;73.08
42125;BME280;27787;44.594;11.046;2023-01-27T02:53:11;100779.47;;;5.17;73.59
42125;BME280;27787;44.594;11.046;2023-01-27T02:55:56;100780.19;;;5.11;73.73
42125;BME280;27787;44.594;11.046;2023-01-27T02:58:41;100775.78;;;5.10;74.28
42125;BME280;27787;44.594;11.046;2023-01-27T03:01:29;100775.06;;;5.16;74.19
42125;BME280;27787;44.594;11.046;2023-01-27T03:04:16;100775.19;;;5.20;73.60
42125;BME280;27787;44.594;11.046;2023-01-27T03:07:01;100777.78;;;5.19;72.99
42125;BME280;27787;44.594;11.046;2023-01-27T03:09:45;100772.53;;;5.19;73.70
42125;BME280;27787;44.594;11.046;2023-01-27T03:12:30;100772.50;;;5.17;73.69
42125;BME280;27787;44.594;11.046;2023-01-27T03:15:14;100778.56;;;5.16;73.61
42125;BME280;27787;44.594;11.046;2023-01-27T03:18:16;100778.72;;;5.21;73.38
42125;BME280;27787;44.594;11.046;2023-01-27T03:21:04;100776.94;;;5.20;73.13
42125;BME280;27787;44.594;11.046;2023-01-27T03:23:48;100768.19;;;5.19;72.89
42125;BME280;27787;44.594;11.046;2023-01-27T03:26:37;100774.09;;;5.12;73.03
42125;BME280;27787;44.594;11.046;2023-01-27T03:29:24;100774.06;;;5.11;73.51
42125;BME280;27787;44.594;11.046;2023-01-27T03:32:29;100773.03;;;5.06;73.29
42125;BME280;27787;44.594;11.046;2023-01-27T03:35:45;100779.19;;;5.08;73.77
42125;BME280;27787;44.594;11.046;2023-01-27T03:38:36;100774.78;;;5.07;73.52
42125;BME280;27787;44.594;11.046;2023-01-27T03:41:39;100777.56;;;5.11;73.72
42125;BME280;27787;44.594;11.046;2023-01-27T03:44:43;100777.31;;;5.03;72.95
42125;BME280;27787;44.594;11.046;2023-01-27T03:47:46;100779.66;;;4.94;73.10
42125;BME280;27787;44.594;11.046;2023-01-27T03:50:30;100770.75;;;4.88;73.27
42125;BME280;27787;44.594;11.046;2023-01-27T03:53:20;100770.84;;;4.91;73.39
42125;BME280;27787;44.594;11.046;2023-01-27T03:56:04;100762.94;;;4.89;73.06
42125;BME280;27787;44.594;11.046;2023-01-27T03:58:49;100780.13;;;4.81;72.96
42125;BME280;27787;44.594;11.046;2023-01-27T04:01:34;100774.53;;;4.69;73.30
42125;BME280;27787;44.594;11.046;2023-01-27T04:04:18;100792.50;;;4.58;73.75
42125;BME280;27787;44.594;11.046;2023-01-27T04:07:21;100778.25;;;4.49;74.30
42125;BME280;27787;44.594;11.046;2023-01-27T04:10:05;100778.16;;;4.46;74.43
42125;BME280;27787;44.594;11.046;2023-01-27T04:12:50;100782.44;;;4.43;74.50
42125;BME280;27787;44.594;11.046;2023-01-27T04:15:34;100784.06;;;4.40;74.63
42125;BME280;27787;44.594;11.046;2023-01-27T04:18:18;100787.56;;;4.40;74.71
42125;BME280;27787;44.594;11.046;2023-01-27T04:21:02;100786.72;;;4.41;74.56
42125;BME280;27787;44.594;11.046;2023-01-27T04:23:47;100788.47;;;4.42;74.69
42125;BME280;27787;44.594;11.046;2023-01-27T04:26:31;100788.00;;;4.54;74.28
42125;BME280;27787;44.594;11.046;2023-01-27T04:29:17;100787.31;;;4.60;73.37
42125;BME280;27787;44.594;11.046;2023-01-27T04:32:02;100789.41;;;4.70;73.05
42125;BME280;27787;44.594;11.046;2023-01-27T04:34:48;100786.19;;;4.80;72.11
42125;BME280;27787;44.594;11.046;2023-01-27T04:37:33;100782.00;;;4.85;70.73
42125;BME280;27787;44.594;11.046;2023-01-27T04:40:17;100788.84;;;4.82;70.60
42125;BME280;27787;44.594;11.046;2023-01-27T04:43:03;100785.34;;;4.81;70.45
42125;BME280;27787;44.594;11.046;2023-01-27T04:45:47;100788.84;;;4.82;70.46
42125;BME280;27787;44.594;11.046;2023-01-27T04:48:31;100786.91;;;4.74;70.43
42125;BME280;27787;44.594;11.046;2023-01-27T04:51:16;100792.94;;;4.72;70.73
42125;BME280;27787;44.594;11.046;2023-01-27T04:54:00;100786.91;;;4.74;70.54
42125;BME280;27787;44.594;11.046;2023-01-27T04:56:56;100794.44;;;4.65;69.32
42125;BME280;27787;44.594;11.046;2023-01-27T04:59:41;100789.28;;;4.67;69.44
42125;BME280;27787;44.594;11.046;2023-01-27T05:02:25;100788.38;;;4.66;70.01
42125;BME280;27787;44.594;11.046;2023-01-27T05:05:09;100798.72;;;4.62;70.56
42125;BME280;27787;44.594;11.046;2023-01-27T05:07:53;100793.38;;;4.59;70.82
42125;BME280;27787;44.594;11.046;2023-01-27T05:10:37;100791.56;;;4.56;70.50
42125;BME280;27787;44.594;11.046;2023-01-27T05:13:21;100790.72;;;4.57;70.59
42125;BME280;27787;44.594;11.046;2023-01-27T05:18:52;100797.53;;;4.52;69.81
42125;BME280;27787;44.594;11.046;2023-01-27T05:21:36;100802.59;;;4.48;69.31
42125;BME280;27787;44.594;11.046;2023-01-27T05:24:20;100803.22;;;4.40;69.16
42125;BME280;27787;44.594;11.046;2023-01-27T05:27:04;100807.34;;;4.32;69.29
42125;BME280;27787;44.594;11.046;2023-01-27T05:29:48;100807.03;;;4.23;69.57
42125;BME280;27787;44.594;11.046;2023-01-27T05:32:32;100806.84;;;4.17;69.88
42125;BME280;27787;44.594;11.046;2023-01-27T05:35:16;100811.03;;;4.13;70.65
42125;BME280;27787;44.594;11.046;2023-01-27T05:38:01;100824.28;;;4.18;70.80
42125;BME280;27787;44.594;11.046;2023-01-27T05:40:45;100818.03;;;4.14;70.87
42125;BME280;27787;44.594;11.046;2023-01-27T05:43:31;100816.22;;;4.12;71.02
42125;BME280;27787;44.594;11.046;2023-01-27T05:46:17;100821.34;;;4.09;70.81
42125;BME280;27787;44.594;11.046;2023-01-27T05:49:04;100828.06;;;4.02;70.86
42125;BME280;27787;44.594;11.046;2023-01-27T05:51:51;100826.19;;;3.98;71.52
42125;BME280;27787;44.594;11.046;2023-01-27T05:54:36;100829.59;;;3.96;72.05
42125;BME280;27787;44.594;11.046;2023-01-27T05:57:20;100832.09;;;3.93;72.56
42125;BME280;27787;44.594;11.046;2023-01-27T06:00:05;100839.09;;;3.94;72.05
42125;BME280;27787;44.594;11.046;2023-01-27T06:02:52;100841.66;;;3.92;72.37
42125;BME280;27787;44.594;11.046;2023-01-27T06:05:36;100837.34;;;3.93;72.20
42125;BME280;27787;44.594;11.046;2023-01-27T06:08:22;100837.38;;;3.94;72.21
42125;BME280;27787;44.594;11.046;2023-01-27T06:11:07;100834.72;;;3.93;71.60
42125;BME280;27787;44.594;11.046;2023-01-27T06:13:52;100838.25;;;3.95;70.81
42125;BME280;27787;44.594;11.046;2023-01-27T06:16:36;100842.69;;;3.97;71.15
42125;BME280;27787;44.594;11.046;2023-01-27T06:19:21;100839.16;;;3.95;70.16
42125;BME280;27787;44.594;11.046;2023-01-27T06:22:05;100839.06;;;3.92;70.29
42125;BME280;27787;44.594;11.046;2023-01-27T06:24:49;100845.13;;;3.91;70.57
42125;BME280;27787;44.594;11.046;2023-01-27T06:27:33;100847.50;;;3.85;70.38
42125;BME280;27787;44.594;11.046;2023-01-27T06:30:17;100847.50;;;3.85;70.61
42125;BME280;27787;44.594;11.046;2023-01-27T06:33:02;100842.22;;;3.83;71.09
42125;BME280;27787;44.594;11.046;2023-01-27T06:35:46;100841.28;;;3.81;71.29
42125;BME280;27787;44.594;11.046;2023-01-27T06:38:31;100849.06;;;3.80;71.22
42125;BME280;27787;44.594;11.046;2023-01-27T06:41:15;100846.44;;;3.80;70.76
42125;BME280;27787;44.594;11.046;2023-01-27T06:44:00;100848.28;;;3.82;70.29
42125;BME280;27787;44.594;11.046;2023-01-27T06:46:44;100853.44;;;3.81;69.67
42125;BME280;27787;44.594;11.046;2023-01-27T06:49:28;100854.22;;;3.78;70.26
42125;BME280;27787;44.594;11.046;2023-01-27T06:52:12;100852.50;;;3.79;70.74
42125;BME280;27787;44.594;11.046;2023-01-27T06:54:57;100852.50;;;3.79;69.97
42125;BME280;27787;44.594;11.046;2023-01-27T06:57:41;100855.81;;;3.75;69.94
42125;BME280;27787;44.594;11.046;2023-01-27T07:00:27;100851.28;;;3.69;69.99
42125;BME280;27787;44.594;11.046;2023-01-27T07:03:11;100848.78;;;3.72;69.23
42125;BME280;27787;44.594;11.046;2023-01-27T07:05:56;100855.56;;;3.67;69.64
42125;BME280;27787;44.594;11.046;2023-01-27T07:08:41;100856.34;;;3.65;70.04
42125;BME280;27787;44.594;11.046;2023-01-27T07:11:28;100864.09;;;3.63;69.36
42125;BME280;27787;44.594;11.046;2023-01-27T07:14:13;100869.41;;;3.65;68.67
42125;BME280;27787;44.594;11.046;2023-01-27T07:16:58;100869.50;;;3.68;68.29
42125;BME280;27787;44.594;11.046;2023-01-27T07:19:42;100883.44;;;3.68;68.14
42125;BME280;27787;44.594;11.046;2023-01-27T07:22:27;100874.81;;;3.71;68.00
42125;BME280;27787;44.594;11.046;2023-01-27T07:25:11;100884.66;;;3.78;66.89
42125;BME280;27787;44.594;11.046;2023-01-27T07:27:59;100881.13;;;3.77;67.12
42125;BME280;27787;44.594;11.046;2023-01-27T07:30:45;100887.44;;;3.82;66.62
42125;BME280;27787;44.594;11.046;2023-01-27T07:33:32;100882.41;;;3.89;66.13
42125;BME280;27787;44.594;11.046;2023-01-27T07:36:16;100886.22;;;3.97;65.47
42125;BME280;27787;44.594;11.046;2023-01-27T07:39:00;100889.72;;;3.97;65.60
42125;BME280;27787;44.594;11.046;2023-01-27T07:41:47;100890.03;;;4.06;65.15
42125;BME280;27787;44.594;11.046;2023-01-27T07:44:32;100878.91;;;4.12;64.26
42125;BME280;27787;44.594;11.046;2023-01-27T07:47:17;100887.88;;;4.19;63.32
42125;BME280;27787;44.594;11.046;2023-01-27T07:50:00;100885.41;;;4.23;63.50
42125;BME280;27787;44.594;11.046;2023-01-27T07:52:47;100890.03;;;4.30;63.11
42125;BME280;27787;44.594;11.046;2023-01-27T07:55:32;100889.88;;;4.27;63.13
42125;BME280;27787;44.594;11.046;2023-01-27T07:58:16;100890.06;;;4.32;62.64
42125;BME280;27787;44.594;11.046;2023-01-27T08:01:04;100885.81;;;4.35;61.71
42125;BME280;27787;44.594;11.046;2023-01-27T08:03:49;100893.66;;;4.35;61.47
42125;BME280;27787;44.594;11.046;2023-01-27T08:06:33;100886.53;;;4.30;61.82
42125;BME280;27787;44.594;11.046;2023-01-27T08:09:17;100896.75;;;4.24;62.26
42125;BME280;27787;44.594;11.046;2023-01-27T08:12:01;100897.47;;;4.20;62.42
42125;BME280;27787;44.594;11.046;2023-01-27T08:14:46;100893.13;;;4.20;62.95
42125;BME280;27787;44.594;11.046;2023-01-27T08:17:30;100903.53;;;4.19;62.83
42125;BME280;27787;44.594;11.046;2023-01-27T08:20:14;100898.19;;;4.15;62.85
42125;BME280;27787;44.594;11.046;2023-01-27T08:22:58;100898.97;;;4.13;63.31
42125;BME280;27787;44.594;11.046;2023-01-27T08:25:50;100913.03;;;4.17;63.01
42125;BME280;27787;44.594;11.046;2023-01-27T08:28:36;100908.03;;;4.23;62.17
42125;BME280;27787;44.594;11.046;2023-01-27T08:31:20;100918.53;;;4.24;62.00
42125;BME280;27787;44.594;11.046;2023-01-27T08:34:05;100914.09;;;4.22;62.90
42125;BME280;27787;44.594;11.046;2023-01-27T08:36:49;100908.97;;;4.25;62.18
42125;BME280;27787;44.594;11.046;2023-01-27T08:39:33;100914.53;;;4.34;61.80
42125;BME280;27787;44.594;11.046;2023-01-27T08:42:18;100910.19;;;4.34;61.99
42125;BME280;27787;44.594;11.046;2023-01-27T08:45:02;100917.34;;;4.40;62.11
42125;BME280;27787;44.594;11.046;2023-01-27T08:47:47;100920.00;;;4.41;61.55
42125;BME280;27787;44.594;11.046;2023-01-27T08:50:32;100933.19;;;4.44;61.55
42125;BME280;27787;44.594;11.046;2023-01-27T08:53:16;100922.00;;;4.49;61.65
42125;BME280;27787;44.594;11.046;2023-01-27T08:56:10;100929.16;;;4.54;61.46
42125;BME280;27787;44.594;11.046;2023-01-27T08:58:55;100925.81;;;4.58;61.12
42125;BME280;27787;44.594;11.046;2023-01-27T09:01:39;100916.63;;;4.69;60.87
42125;BME280;27787;44.594;11.046;2023-01-27T09:04:25;100918.72;;;4.81;60.74
42125;BME280;27787;44.594;11.046;2023-01-27T09:07:10;100926.09;;;4.93;59.91
42125;BME280;27787;44.594;11.046;2023-01-27T09:09:54;100923.81;;;5.03;59.50
42125;BME280;27787;44.594;11.046;2023-01-27T09:12:39;100918.94;;;5.14;59.06
42125;BME280;27787;44.594;11.046;2023-01-27T09:15:23;100921.84;;;5.23;58.79
42125;BME280;27787;44.594;11.046;2023-01-27T09:18:08;100933.38;;;5.30;58.97
42125;BME280;27787;44.594;11.046;2023-01-27T09:20:52;100928.31;;;5.35;58.95
42125;BME280;27787;44.594;11.046;2023-01-27T09:23:37;100922.97;;;5.31;58.36
42125;BME280;27787;44.594;11.046;2023-01-27T09:26:21;100934.16;;;5.26;58.15
42125;BME280;27787;44.594;11.046;2023-01-27T09:29:06;100933.94;;;5.20;57.86
42125;BME280;27787;44.594;11.046;2023-01-27T09:31:50;100932.06;;;5.16;58.20
42125;BME280;27787;44.594;11.046;2023-01-27T09:34:34;100932.16;;;5.19;58.77
42125;BME280;27787;44.594;11.046;2023-01-27T09:37:18;100934.16;;;5.26;58.36
42125;BME280;27787;44.594;11.046;2023-01-27T09:40:10;100933.31;;;5.27;58.41
42125;BME280;27787;44.594;11.046;2023-01-27T10:05:09;100945.03;;;5.97;57.90
42125;BME280;27787;44.594;11.046;2023-01-27T10:11:15;100938.16;;;6.00;58.39
42125;BME280;27787;44.594;11.046;2023-01-27T10:20:47;100932.53;;;5.88;59.18
42125;BME280;27787;44.594;11.046;2023-01-27T10:26:54;100933.78;;;5.99;58.94
42125;BME280;27787;44.594;11.046;2023-01-27T10:29:45;100927.91;;;6.09;59.19
42125;BME280;27787;44.594;11.046;2023-01-27T10:32:57;100925.69;;;6.23;58.10
42125;BME280;27787;44.594;11.046;2023-01-27T10:35:57;100926.81;;;6.33;56.84
42125;BME280;27787;44.594;11.046;2023-01-27T10:39:02;100930.56;;;6.41;57.03
42125;BME280;27787;44.594;11.046;2023-01-27T10:42:02;100923.69;;;6.46;57.42
42125;BME280;27787;44.594;11.046;2023-01-27T10:48:17;100919.47;;;6.51;55.98
42125;BME280;27787;44.594;11.046;2023-01-27T10:51:21;100924.53;;;6.45;56.02
42125;BME280;27787;44.594;11.046;2023-01-27T10:57:32;100913.53;;;6.58;56.79
42125;BME280;27787;44.594;11.046;2023-01-27T11:03:27;100905.03;;;6.68;55.66
42125;BME280;27787;44.594;11.046;2023-01-27T11:06:16;100911.09;;;6.66;54.95
42125;BME280;27787;44.594;11.046;2023-01-27T11:09:28;100901.47;;;6.65;55.48
42125;BME280;27787;44.594;11.046;2023-01-27T11:12:14;100910.97;;;6.61;55.35
42125;BME280;27787;44.594;11.046;2023-01-27T11:15:00;100903.13;;;6.63;55.87
42125;BME280;27787;44.594;11.046;2023-01-27T11:17:52;100907.59;;;6.65;55.10
42125;BME280;27787;44.594;11.046;2023-01-27T11:20:43;100905.84;;;6.66;55.09
42125;BME280;27787;44.594;11.046;2023-01-27T11:23:39;100901.63;;;6.72;55.27
42125;BME280;27787;44.594;11.046;2023-01-27T11:26:33;100895.53;;;6.73;54.65
42125;BME280;27787;44.594;11.046;2023-01-27T11:29:47;100891.44;;;6.85;55.09
42125;BME280;27787;44.594;11.046;2023-01-27T11:32:58;100891.69;;;6.94;54.52
42125;BME280;27787;44.594;11.046;2023-01-27T11:35:45;100874.47;;;7.05;54.35
42125;BME280;27787;44.594;11.046;2023-01-27T11:38:30;100867.63;;;7.13;54.05
42125;BME280;27787;44.594;11.046;2023-01-27T11:41:15;100864.31;;;7.20;54.13
42125;BME280;27787;44.594;11.046;2023-01-27T11:44:03;100865.41;;;7.30;53.97
42125;BME280;27787;44.594;11.046;2023-01-27T11:46:49;100860.31;;;7.39;53.74
42125;BME280;27787;44.594;11.046;2023-01-27T11:49:41;100861.31;;;7.43;54.02
42125;BME280;27787;44.594;11.046;2023-01-27T11:52:27;100858.81;;;7.50;53.83
42125;BME280;27787;44.594;11.046;2023-01-27T11:55:20;100851.84;;;7.52;53.28
42125;BME280;27787;44.594;11.046;2023-01-27T12:01:16;100838.59;;;7.45;51.97
42125;BME280;27787;44.594;11.046;2023-01-27T12:04:08;100839.22;;;7.34;54.05
42125;BME280;27787;44.594;11.046;2023-01-27T12:07:04;100841.72;;;7.28;52.78
42125;BME280;27787;44.594;11.046;2023-01-27T12:09:50;100836.28;;;7.19;51.85
42125;BME280;27787;44.594;11.046;2023-01-27T12:12:36;100842.44;;;7.21;52.75
42125;BME280;27787;44.594;11.046;2023-01-27T12:15:20;100833.69;;;7.21;53.09
42125;BME280;27787;44.594;11.046;2023-01-27T12:18:14;100830.00;;;7.13;53.18
42125;BME280;27787;44.594;11.046;2023-01-27T12:21:00;100835.88;;;7.02;54.00
42125;BME280;27787;44.594;11.046;2023-01-27T12:23:51;100839.28;;;6.98;54.81
42125;BME280;27787;44.594;11.046;2023-01-27T12:26:37;100827.91;;;6.98;55.18
42125;BME280;27787;44.594;11.046;2023-01-27T12:29:37;100821.09;;;7.06;54.25
42125;BME280;27787;44.594;11.046;2023-01-27T12:32:33;100826.50;;;7.14;53.55
42125;BME280;27787;44.594;11.046;2023-01-27T12:35:27;100813.56;;;7.21;54.02
42125;BME280;27787;44.594;11.046;2023-01-27T12:38:16;100814.72;;;7.34;53.42
42125;BME280;27787;44.594;11.046;2023-01-27T12:41:06;100814.84;;;7.40;52.25
42125;BME280;27787;44.594;11.046;2023-01-27T12:44:16;100820.06;;;7.40;52.03
42125;BME280;27787;44.594;11.046;2023-01-27T12:47:12;100814.75;;;7.35;52.00
42125;BME280;27787;44.594;11.046;2023-01-27T12:50:20;100807.66;;;7.31;52.14
42125;BME280;27787;44.594;11.046;2023-01-27T12:53:15;100812.81;;;7.28;52.02
42125;BME280;27787;44.594;11.046;2023-01-27T12:56:09;100811.84;;;7.23;52.83
42125;BME280;27787;44.594;11.046;2023-01-27T12:58:59;100804.88;;;7.25;53.08
42125;BME280;27787;44.594;11.046;2023-01-27T13:01:56;100809.38;;;7.29;53.27
42125;BME280;27787;44.594;11.046;2023-01-27T13:04:42;100798.97;;;7.34;53.75
42125;BME280;27787;44.594;11.046;2023-01-27T13:07:30;100806.94;;;7.38;52.91
42125;BME280;27787;44.594;11.046;2023-01-27T13:10:24;100801.66;;;7.38;52.55
42125;BME280;27787;44.594;11.046;2023-01-27T13:13:17;100796.38;;;7.37;52.67
42125;BME280;27787;44.594;11.046;2023-01-27T13:16:11;100796.47;;;7.42;52.89
42125;BME280;27787;44.594;11.046;2023-01-27T13:18:59;100795.69;;;7.46;51.81
42125;BME280;27787;44.594;11.046;2023-01-27T13:21:46;100799.31;;;7.52;52.21
42125;BME280;27787;44.594;11.046;2023-01-27T13:24:36;100786.47;;;7.66;51.96
42125;BME280;27787;44.594;11.046;2023-01-27T13:27:21;100785.75;;;7.73;50.88
42125;BME280;27787;44.594;11.046;2023-01-27T13:33:39;100782.31;;;7.79;50.23
42125;BME280;27787;44.594;11.046;2023-01-27T13:39:36;100780.31;;;7.65;50.62
42125;BME280;27787;44.594;11.046;2023-01-27T13:42:52;100792.34;;;7.53;50.86
42125;BME280;27787;44.594;11.046;2023-01-27T13:45:39;100787.03;;;7.50;51.47
42125;BME280;27787;44.594;11.046;2023-01-27T13:48:26;100773.00;;;7.49;52.27
42125;BME280;27787;44.594;11.046;2023-01-27T13:51:15;100789.44;;;7.39;50.89
42125;BME280;27787;44.594;11.046;2023-01-27T13:54:04;100792.78;;;7.32;51.17
42125;BME280;27787;44.594;11.046;2023-01-27T13:57:11;100782.19;;;7.27;51.54
42125;BME280;27787;44.594;11.046;2023-01-27T14:00:17;100786.53;;;7.27;52.42
42125;BME280;27787;44.594;11.046;2023-01-27T14:09:31;100781.59;;;7.42;50.43
42125;BME280;27787;44.594;11.046;2023-01-27T14:18:23;100782.34;;;7.35;48.73
42125;BME280;27787;44.594;11.046;2023-01-27T14:21:36;100785.75;;;7.29;48.65
42125;BME280;27787;44.594;11.046;2023-01-27T14:27:17;100789.28;;;7.31;48.81
42125;BME280;27787;44.594;11.046;2023-01-27T14:36:18;100794.38;;;7.25;47.95
42125;BME280;27787;44.594;11.046;2023-01-27T14:45:34;100798.38;;;7.06;48.31
42125;BME280;27787;44.594;11.046;2023-01-27T15:18:39;100825.41;;;6.65;48.48
42125;BME280;27787;44.594;11.046;2023-01-27T15:27:01;100831.09;;;6.48;48.93
42125;BME280;27787;44.594;11.046;2023-01-27T15:29:45;100819.63;;;6.43;48.98
42125;BME280;27787;44.594;11.046;2023-01-27T15:32:35;100816.06;;;6.41;49.26
42125;BME280;27787;44.594;11.046;2023-01-27T15:35:34;100821.25;;;6.38;49.40
42125;BME280;27787;44.594;11.046;2023-01-27T15:38:31;100815.84;;;6.32;49.52
42125;BME280;27787;44.594;11.046;2023-01-27T15:41:16;100830.59;;;6.29;50.13
42125;BME280;27787;44.594;11.046;2023-01-27T15:47:30;100828.34;;;6.09;50.96
42125;BME280;27787;44.594;11.046;2023-01-27T15:50:22;100829.06;;;6.04;50.86
42125;BME280;27787;44.594;11.046;2023-01-27T15:53:15;100835.22;;;6.04;51.30
42125;BME280;27787;44.594;11.046;2023-01-27T15:56:03;100841.16;;;5.99;51.23
42125;BME280;27787;44.594;11.046;2023-01-27T15:58:58;100833.94;;;5.90;51.70
42125;BME280;27787;44.594;11.046;2023-01-27T16:01:48;100838.88;;;5.81;52.49
42125;BME280;27787;44.594;11.046;2023-01-27T16:04:41;100842.06;;;5.69;53.36
42125;BME280;27787;44.594;11.046;2023-01-27T16:07:32;100840.00;;;5.59;53.68
42125;BME280;27787;44.594;11.046;2023-01-27T16:10:19;100850.25;;;5.50;54.72
42125;BME280;27787;44.594;11.046;2023-01-27T16:22:01;100851.25;;;5.25;56.62
42125;BME280;27787;44.594;11.046;2023-01-27T16:24:54;100857.03;;;5.15;57.25
42125;BME280;27787;44.594;11.046;2023-01-27T16:31:03;100862.84;;;5.06;58.46
42125;BME280;27787;44.594;11.046;2023-01-27T16:33:53;100870.66;;;5.04;58.48
42125;BME280;27787;44.594;11.046;2023-01-27T16:36:40;100868.75;;;4.99;59.14
42125;BME280;27787;44.594;11.046;2023-01-27T16:39:40;100870.28;;;4.92;59.03
42125;BME280;27787;44.594;11.046;2023-01-27T16:42:32;100870.28;;;4.92;59.12
42125;BME280;27787;44.594;11.046;2023-01-27T16:45:40;100874.66;;;4.93;58.72
42125;BME280;27787;44.594;11.046;2023-01-27T16:48:30;100877.41;;;4.96;58.81
42125;BME280;27787;44.594;11.046;2023-01-27T16:51:19;100874.78;;;4.96;59.67
42125;BME280;27787;44.594;11.046;2023-01-27T16:54:28;100884.44;;;4.99;59.71
42125;BME280;27787;44.594;11.046;2023-01-27T16:57:34;100886.34;;;5.04;59.85
42125;BME280;27787;44.594;11.046;2023-01-27T17:00:26;100888.94;;;5.03;60.10
42125;BME280;27787;44.594;11.046;2023-01-27T17:03:17;100879.25;;;5.00;60.52
42125;BME280;27787;44.594;11.046;2023-01-27T17:06:10;100889.69;;;4.99;60.42
42125;BME280;27787;44.594;11.046;2023-01-27T17:08:58;100883.31;;;4.91;60.84
42125;BME280;27787;44.594;11.046;2023-01-27T17:11:42;100884.94;;;4.87;61.06